createdAt,value
2022-07-31T00:04:10.669Z,11.70
2022-07-31T00:09:45.562Z,10.67
2022-07-31T00:14:29.304Z,15.87
2022-07-31T00:19:27.487Z,8.87
2022-07-31T00:24:27.346Z,9.27
2022-07-31T00:29:28.405Z,8.00
2022-07-31T00:34:26.603Z,12.07
2022-07-31T00:39:26.685Z,9.40
2022-07-31T00:44:25.211Z,10.57
2022-07-31T00:49:24.767Z,9.33
2022-07-31T00:54:23.289Z,9.17
2022-07-31T00:59:24.380Z,10.93
2022-07-31T01:04:23.057Z,11.53
2022-07-31T01:09:21.360Z,11.03
2022-07-31T01:14:22.984Z,10.77
2022-07-31T01:19:39.777Z,9.70
2022-07-31T01:25:00.538Z,9.20
2022-07-31T01:30:12.478Z,10.10
2022-07-31T01:35:16.558Z,11.63
2022-07-31T01:40:17.964Z,11.57
2022-07-31T01:45:19.217Z,11.50
2022-07-31T01:50:42.800Z,12.97
2022-07-31T01:56:02.626Z,8.73
2022-07-31T02:01:00.158Z,7.70
2022-07-31T02:06:00.938Z,11.00
2022-07-31T02:11:03.047Z,11.90
2022-07-31T02:16:06.336Z,11.57
2022-07-31T02:21:06.799Z,8.63
2022-07-31T02:26:07.170Z,8.53
2022-07-31T02:31:10.423Z,13.43
2022-07-31T02:36:09.618Z,13.63
2022-07-31T02:41:08.713Z,8.70
2022-07-31T02:46:09.982Z,9.23
2022-07-31T02:51:09.242Z,9.30
2022-07-31T02:56:09.431Z,9.37
2022-07-31T03:01:11.497Z,10.37
2022-07-31T03:06:09.885Z,10.00
2022-07-31T03:11:11.193Z,10.70
2022-07-31T03:16:13.374Z,15.13
2022-07-31T03:21:13.059Z,11.13
2022-07-31T03:26:12.378Z,11.60
2022-07-31T03:31:12.085Z,10.50
2022-07-31T03:36:10.581Z,12.13
2022-07-31T03:41:08.822Z,15.40
2022-07-31T03:46:07.602Z,10.47
2022-07-31T03:51:08.298Z,12.43
2022-07-31T03:56:08.155Z,9.80
2022-07-31T04:01:12.221Z,12.87
2022-07-31T04:06:12.208Z,11.87
2022-07-31T04:11:10.514Z,16.83
2022-07-31T04:16:08.767Z,15.43
2022-07-31T04:21:06.994Z,10.40
2022-07-31T04:26:06.813Z,16.93
2022-07-31T04:31:10.308Z,15.33
2022-07-31T04:36:29.277Z,15.03
2022-07-31T04:41:31.694Z,12.20
2022-07-31T04:46:30.070Z,10.20
2022-07-31T04:51:28.492Z,7.70
2022-07-31T04:56:37.688Z,11.50
2022-07-31T05:01:38.481Z,10.10
2022-07-31T05:06:38.571Z,10.33
2022-07-31T05:11:38.192Z,10.07
2022-07-31T05:16:38.310Z,9.93
2022-07-31T05:21:53.235Z,10.57
2022-07-31T05:27:10.833Z,9.20
2022-07-31T05:32:13.550Z,9.80
2022-07-31T05:37:11.995Z,9.63
2022-07-31T05:42:12.112Z,9.33
2022-07-31T05:47:41.192Z,10.40
2022-07-31T05:52:42.717Z,13.70
2022-07-31T05:57:59.616Z,10.63
2022-07-31T06:03:00.010Z,15.73
2022-07-31T06:08:33.871Z,10.30
2022-07-31T06:13:33.051Z,12.80
2022-07-31T06:18:44.496Z,14.37
2022-07-31T06:23:42.791Z,9.57
2022-07-31T06:28:54.204Z,12.60
2022-07-31T06:33:53.825Z,11.47
2022-07-31T06:38:56.065Z,13.53
2022-07-31T06:44:14.909Z,8.60
2022-07-31T06:49:33.461Z,15.17
2022-07-31T06:54:31.821Z,11.03
2022-07-31T06:59:39.274Z,14.43
2022-07-31T07:05:04.646Z,14.80
2022-07-31T07:09:59.074Z,11.47
2022-07-31T07:15:17.373Z,8.53
2022-07-31T07:20:17.098Z,12.03
2022-07-31T07:25:15.469Z,10.50
2022-07-31T07:30:14.410Z,14.03
2022-07-31T07:35:13.546Z,16.10
2022-07-31T07:40:27.074Z,10.23
2022-07-31T07:45:25.898Z,14.60
2022-07-31T07:50:27.221Z,13.70
2022-07-31T07:55:47.846Z,11.43
2022-07-31T08:01:04.484Z,10.63
2022-07-31T08:06:02.929Z,14.33
2022-07-31T08:11:03.995Z,16.23
2022-07-31T08:16:26.928Z,12.30
2022-07-31T08:21:28.353Z,9.03
2022-07-31T08:26:48.041Z,11.93
2022-07-31T08:31:49.533Z,17.07
2022-07-31T08:37:52.488Z,14.13
2022-07-31T08:42:40.361Z,29.20
2022-07-31T08:47:41.403Z,14.63
2022-07-31T08:52:46.123Z,12.80
2022-07-31T08:57:50.830Z,22.80
2022-07-31T09:02:49.303Z,10.90
2022-07-31T09:07:50.484Z,13.93
2022-07-31T09:12:50.457Z,11.60
2022-07-31T09:17:53.689Z,12.20
2022-07-31T09:23:05.080Z,11.10
2022-07-31T09:28:06.385Z,12.63
2022-07-31T09:33:16.711Z,14.20
2022-07-31T09:38:44.852Z,17.07
2022-07-31T09:44:10.344Z,13.40
2022-07-31T09:49:10.438Z,13.50
2022-07-31T09:54:21.982Z,15.60
2022-07-31T09:59:33.447Z,16.00
2022-07-31T10:04:33.430Z,18.00
2022-07-31T10:09:34.555Z,16.10
2022-07-31T10:15:00.424Z,22.03
2022-07-31T10:20:03.107Z,21.60
2022-07-31T10:25:28.485Z,20.43
2022-07-31T10:30:29.935Z,18.93
2022-07-31T10:35:31.327Z,17.00
2022-07-31T10:40:44.189Z,22.23
2022-07-31T10:45:50.415Z,22.30
2022-07-31T10:51:22.444Z,26.33
2022-07-31T10:56:42.581Z,22.57
2022-07-31T11:01:56.403Z,25.10
2022-07-31T11:07:20.009Z,27.03
2022-07-31T11:12:33.653Z,27.70
2022-07-31T11:18:22.429Z,28.93
2022-07-31T11:23:17.656Z,32.10
2022-07-31T11:28:18.857Z,32.40
2022-07-31T11:33:30.095Z,30.70
2022-07-31T11:38:40.364Z,31.40
2022-07-31T11:43:47.190Z,83.57
2022-07-31T11:48:46.826Z,32.20
2022-07-31T11:53:45.038Z,31.87
2022-07-31T11:58:48.332Z,34.00
2022-07-31T12:03:50.908Z,34.93
2022-07-31T12:08:49.925Z,35.50
2022-07-31T12:13:49.582Z,35.57
2022-07-31T12:18:50.786Z,37.50
2022-07-31T12:23:51.861Z,37.60
2022-07-31T12:28:58.282Z,37.87
2022-07-31T12:33:58.040Z,43.30
2022-07-31T12:39:03.867Z,39.80
2022-07-31T12:44:13.393Z,57.23
2022-07-31T12:49:14.645Z,37.83
2022-07-31T12:54:14.060Z,40.07
2022-07-31T12:59:12.345Z,38.43
2022-07-31T13:04:19.145Z,40.60
2022-07-31T13:09:19.706Z,37.83
2022-07-31T13:14:18.724Z,33.50
2022-07-31T13:19:17.048Z,35.17
2022-07-31T13:24:15.306Z,32.83
2022-07-31T13:29:15.046Z,32.57
2022-07-31T13:34:13.422Z,31.10
2022-07-31T13:39:12.181Z,31.30
2022-07-31T13:44:10.582Z,32.63
2022-07-31T13:49:10.694Z,33.33
2022-07-31T13:54:09.470Z,27.90
2022-07-31T13:59:07.813Z,31.20
2022-07-31T14:04:06.619Z,32.40
2022-07-31T14:09:06.320Z,28.50
2022-07-31T14:14:04.541Z,26.23
2022-07-31T14:19:04.499Z,24.27
2022-07-31T14:24:02.746Z,24.53
2022-07-31T14:29:06.961Z,24.87
2022-07-31T14:34:05.727Z,23.40
2022-07-31T14:39:03.964Z,26.20
2022-07-31T14:44:03.536Z,26.00
2022-07-31T14:49:02.676Z,18.13
2022-07-31T14:54:00.985Z,22.50
2022-07-31T14:58:59.247Z,21.10
2022-07-31T15:03:58.850Z,22.87
2022-07-31T15:08:57.113Z,17.10
2022-07-31T15:13:55.344Z,23.90
2022-07-31T15:18:55.262Z,17.03
2022-07-31T15:23:54.879Z,17.80
2022-07-31T15:28:53.122Z,18.23
2022-07-31T15:33:51.461Z,16.67
2022-07-31T15:38:49.669Z,16.70
2022-07-31T15:43:49.333Z,11.10
2022-07-31T15:48:47.607Z,9.30
2022-07-31T15:53:45.953Z,9.93
2022-07-31T15:58:44.658Z,11.33
2022-07-31T16:03:53.068Z,11.00
2022-07-31T16:08:51.954Z,11.17
2022-07-31T16:13:50.230Z,10.53
2022-07-31T16:18:49.815Z,12.23
2022-07-31T16:23:48.062Z,13.43
2022-07-31T16:28:47.564Z,10.33
2022-07-31T16:33:51.031Z,7.43
2022-07-31T16:39:18.608Z,11.83
2022-07-31T16:44:08.063Z,12.00
2022-07-31T16:49:35.564Z,10.23
2022-07-31T16:54:25.900Z,10.40
2022-07-31T16:59:24.278Z,9.03
2022-07-31T17:04:23.954Z,9.20
2022-07-31T17:09:22.507Z,10.70
2022-07-31T17:14:23.100Z,9.40
2022-07-31T17:19:42.666Z,12.27
2022-07-31T17:24:42.826Z,11.83
2022-07-31T17:29:41.137Z,13.60
2022-07-31T17:34:44.906Z,17.87
2022-07-31T17:39:43.093Z,15.30
2022-07-31T17:44:41.488Z,11.13
2022-07-31T17:49:46.777Z,16.60
2022-07-31T17:54:45.061Z,15.10
2022-07-31T17:59:44.301Z,16.80
2022-07-31T18:04:42.513Z,15.77
2022-07-31T18:09:43.065Z,14.43
2022-07-31T18:14:41.361Z,13.23
2022-07-31T18:19:39.603Z,16.87
2022-07-31T18:24:38.097Z,13.70
2022-07-31T18:29:38.022Z,12.00
2022-07-31T18:34:36.911Z,11.13
2022-07-31T18:39:35.155Z,8.10
2022-07-31T18:44:49.171Z,12.60
2022-07-31T18:51:00.668Z,10.07
2022-07-31T18:55:09.275Z,10.20
2022-07-31T19:00:10.949Z,10.60
2022-07-31T19:05:13.667Z,12.07
2022-07-31T19:10:30.896Z,7.30
2022-07-31T19:15:31.448Z,13.63
2022-07-31T19:20:41.130Z,9.63
2022-07-31T19:26:02.240Z,11.33
2022-07-31T19:31:04.869Z,11.50
2022-07-31T19:36:03.475Z,12.23
2022-07-31T19:41:01.911Z,7.70
2022-07-31T19:46:11.742Z,12.33
2022-07-31T19:51:12.729Z,8.67
2022-07-31T19:56:18.081Z,7.20
2022-07-31T20:01:20.042Z,16.27
2022-07-31T20:06:19.994Z,7.07
2022-07-31T20:11:18.315Z,11.43
2022-07-31T20:16:16.646Z,7.90
2022-07-31T20:21:14.993Z,7.90
2022-07-31T20:26:15.424Z,8.83
2022-07-31T20:31:15.069Z,7.13
2022-07-31T20:36:14.698Z,8.20
2022-07-31T20:41:14.391Z,12.33
2022-07-31T20:46:12.686Z,9.10
2022-07-31T20:51:15.914Z,19.17
2022-07-31T20:56:15.567Z,9.13
2022-07-31T21:01:14.953Z,19.43
2022-07-31T21:06:13.538Z,6.27
2022-07-31T21:11:11.865Z,10.17
2022-07-31T21:16:11.627Z,9.03
2022-07-31T21:21:09.965Z,16.53
2022-07-31T21:26:08.792Z,7.20
2022-07-31T21:31:07.520Z,11.10
2022-07-31T21:36:08.312Z,6.60
2022-07-31T21:41:07.055Z,10.03
2022-07-31T21:46:05.768Z,76.27
2022-07-31T21:51:10.037Z,9.90
2022-07-31T21:56:10.561Z,6.00
2022-07-31T22:01:08.822Z,7.53
2022-07-31T22:06:26.292Z,7.60
2022-07-31T22:11:24.754Z,9.43
2022-07-31T22:16:23.066Z,9.93
2022-07-31T22:21:23.957Z,10.53
2022-07-31T22:26:23.180Z,13.27
2022-07-31T22:31:22.179Z,12.77
2022-07-31T22:36:22.323Z,10.50
2022-07-31T22:41:20.807Z,7.93
2022-07-31T22:46:19.195Z,13.20
2022-07-31T22:51:17.674Z,15.10
2022-07-31T22:56:17.916Z,13.13
2022-07-31T23:01:16.257Z,10.20
2022-07-31T23:06:31.317Z,14.63
2022-07-31T23:11:32.203Z,10.13
2022-07-31T23:16:30.526Z,12.77
2022-07-31T23:21:29.456Z,10.83
2022-07-31T23:26:28.498Z,12.77
2022-07-31T23:31:28.170Z,12.00
2022-07-31T23:36:26.458Z,14.50
2022-07-31T23:41:38.700Z,10.20
2022-07-31T23:46:38.312Z,7.83
2022-07-31T23:51:38.547Z,12.03
2022-07-31T23:56:36.770Z,10.60
